Time;durP1;ratioP1;P1;durP2;ratioP2;P2;SDS_P1;SDS_P2;PMS_P1;PMS_P2;Temp;Humidity;BMP_temperature;BMP_pressure;BME280_temperature;BME280_humidity;BME280_pressure;Samples;Min_cycle;Max_cycle;Signal;HPM_P1;HPM_P2
2022/01/18 00:01:36;;;;;;;12.35;3.40;;;6.20;99.90;;;;;;5107707;28;20203;-76
2022/01/18 00:04:05;;;;;;;17.90;4.25;;;6.20;99.90;;;;;;5107758;28;20203;-76
2022/01/18 00:06:33;;;;;;;14.02;3.40;;;6.20;99.90;;;;;;5107119;28;20462;-77
2022/01/18 00:09:01;;;;;;;12.07;3.70;;;6.30;99.90;;;;;;5106095;28;20284;-77
2022/01/18 00:11:38;;;;;;;22.67;3.65;;;6.40;99.90;;;;;;5104830;28;20943;-77
2022/01/18 00:14:13;;;;;;;11.57;3.10;;;6.40;99.90;;;;;;5106330;28;20196;-77
2022/01/18 00:17:00;;;;;;;15.48;3.30;;;6.30;99.90;;;;;;5107906;28;20309;-77
2022/01/18 00:19:28;;;;;;;9.90;4.00;;;6.30;99.90;;;;;;5108222;28;20290;-77
2022/01/18 00:22:09;;;;;;;22.48;4.10;;;6.30;99.90;;;;;;5104073;28;20200;-73
2022/01/18 00:24:40;;;;;;;21.30;4.50;;;6.40;99.90;;;;;;5101622;28;20204;-74
2022/01/18 00:27:13;;;;;;;13.20;3.45;;;6.40;99.90;;;;;;5103077;28;20222;-77
2022/01/18 00:29:49;;;;;;;17.98;3.95;;;6.40;99.90;;;;;;5102661;28;20220;-73
2022/01/18 00:32:26;;;;;;;14.88;4.85;;;6.40;99.90;;;;;;5102299;28;20226;-75
2022/01/18 00:34:56;;;;;;;18.42;3.80;;;6.40;99.90;;;;;;5102155;28;20218;-72
2022/01/18 00:37:32;;;;;;;5.40;3.20;;;6.40;99.90;;;;;;5101315;28;20862;-75
2022/01/18 00:40:00;;;;;;;9.25;4.15;;;6.40;99.90;;;;;;5101574;28;20221;-74
2022/01/18 00:42:29;;;;;;;21.30;5.78;;;6.50;99.90;;;;;;5101132;28;20308;-76
2022/01/18 00:44:57;;;;;;;23.45;4.88;;;6.50;99.90;;;;;;5104197;28;20203;-78
2022/01/18 00:47:25;;;;;;;16.15;4.40;;;6.40;99.90;;;;;;5102754;28;20883;-75
2022/01/18 00:50:00;;;;;;;15.70;3.63;;;6.40;99.90;;;;;;5102510;28;20310;-76
2022/01/18 00:52:30;;;;;;;17.00;3.50;;;6.40;99.90;;;;;;5102522;28;20285;-75
2022/01/18 00:55:00;;;;;;;8.45;3.22;;;6.40;99.90;;;;;;5100810;28;20200;-77
2022/01/18 00:57:29;;;;;;;8.25;2.63;;;6.40;99.90;;;;;;5101392;28;20262;-75
2022/01/18 00:59:57;;;;;;;9.70;2.00;;;6.40;99.90;;;;;;5101283;28;20207;-73
2022/01/18 01:02:25;;;;;;;14.45;2.47;;;6.40;99.90;;;;;;5100464;28;20208;-74
2022/01/18 01:04:53;;;;;;;8.50;2.90;;;6.40;99.90;;;;;;5098659;28;20207;-75
2022/01/18 01:07:23;;;;;;;9.57;3.17;;;6.40;99.90;;;;;;5101234;28;20223;-76
2022/01/18 01:09:52;;;;;;;13.32;2.47;;;6.40;99.90;;;;;;5100809;28;20223;-73
2022/01/18 01:12:24;;;;;;;14.95;2.20;;;6.40;99.90;;;;;;5101002;28;20793;-74
2022/01/18 01:15:04;;;;;;;10.10;2.20;;;6.40;99.90;;;;;;5100304;28;20706;-74
2022/01/18 01:17:42;;;;;;;8.93;2.40;;;6.40;99.90;;;;;;5099773;28;20226;-74
2022/01/18 01:43:13;;;;;;;10.48;2.33;;;6.60;99.90;;;;;;5100692;28;20200;-72
2022/01/18 01:45:42;;;;;;;6.05;1.77;;;6.60;99.90;;;;;;5100408;28;20196;-74
2022/01/18 01:48:11;;;;;;;7.50;2.05;;;6.70;99.90;;;;;;5099856;28;20223;-74
2022/01/18 01:50:49;;;;;;;11.68;1.73;;;6.70;99.90;;;;;;5100117;28;20202;-75
2022/01/18 01:53:19;;;;;;;6.15;2.75;;;6.80;99.90;;;;;;5100840;28;20194;-74
2022/01/18 01:55:48;;;;;;;7.03;1.70;;;6.80;99.90;;;;;;5099129;28;20207;-72
2022/01/18 01:58:17;;;;;;;8.43;2.33;;;6.80;99.90;;;;;;5099432;28;20219;-74
2022/01/18 02:00:47;;;;;;;7.07;1.52;;;6.90;99.90;;;;;;5099424;28;20248;-72
2022/01/18 02:03:17;;;;;;;5.75;1.75;;;6.80;99.90;;;;;;5099985;28;20203;-73
2022/01/18 02:05:46;;;;;;;6.60;1.92;;;6.80;99.90;;;;;;5099786;28;20230;-75
2022/01/18 02:08:15;;;;;;;11.13;2.20;;;6.80;99.90;;;;;;5100715;28;20225;-73
2022/01/18 02:10:44;;;;;;;9.27;2.53;;;6.90;99.90;;;;;;5103865;28;20191;-73
2022/01/18 02:13:13;;;;;;;10.20;2.47;;;6.80;99.90;;;;;;5104015;28;20209;-73
2022/01/18 02:15:48;;;;;;;7.80;3.08;;;6.80;99.90;;;;;;5104196;28;20287;-72
2022/01/18 02:24:02;;;;;;;10.55;2.60;;;6.90;99.90;;;;;;5103484;28;20744;-75
2022/01/18 02:26:30;;;;;;;6.65;1.75;;;6.90;99.90;;;;;;5103872;28;20250;-74
2022/01/18 02:28:59;;;;;;;5.88;2.15;;;6.90;99.90;;;;;;5103856;28;20223;-74
2022/01/18 02:31:27;;;;;;;10.02;1.60;;;6.90;99.90;;;;;;5103525;28;20691;-73
2022/01/18 02:33:55;;;;;;;4.22;1.33;;;7.00;99.90;;;;;;5103791;28;20237;-73
2022/01/18 02:36:24;;;;;;;14.60;4.28;;;6.90;99.90;;;;;;5103622;28;20216;-74
2022/01/18 02:38:52;;;;;;;9.70;1.60;;;7.00;99.90;;;;;;5103605;28;20195;-75
2022/01/18 02:41:24;;;;;;;9.77;2.00;;;7.00;99.90;;;;;;5103176;28;20206;-75
2022/01/18 02:43:55;;;;;;;6.30;1.90;;;7.00;99.90;;;;;;5103496;28;20276;-74
2022/01/18 02:46:23;;;;;;;5.13;1.55;;;7.00;99.90;;;;;;5103743;28;20219;-75
2022/01/18 02:48:52;;;;;;;4.93;1.67;;;7.00;99.90;;;;;;5104955;28;20282;-75
2022/01/18 02:51:20;;;;;;;5.18;1.25;;;7.00;99.90;;;;;;5105310;28;20208;-77
2022/01/18 02:54:00;;;;;;;6.68;1.65;;;7.00;99.90;;;;;;5105696;28;20203;-74
2022/01/18 02:56:30;;;;;;;7.15;1.80;;;7.00;99.90;;;;;;5111917;28;20233;-77
2022/01/18 02:59:06;;;;;;;5.43;1.25;;;6.90;99.90;;;;;;5107161;28;20218;-77
2022/01/18 03:04:19;;;;;;;4.97;2.13;;;6.90;99.90;;;;;;5105393;28;20203;-74
2022/01/18 03:06:47;;;;;;;2.25;0.65;;;6.90;99.90;;;;;;5104929;28;20408;-74
2022/01/18 03:09:16;;;;;;;3.55;1.00;;;6.90;99.90;;;;;;5106728;28;20878;-77
2022/01/18 03:11:45;;;;;;;6.57;1.60;;;6.90;99.90;;;;;;5105697;28;20200;-73
2022/01/18 03:14:12;;;;;;;6.40;1.10;;;6.80;99.90;;;;;;5102316;28;20368;-73
2022/01/18 03:16:40;;;;;;;4.15;1.67;;;6.90;99.90;;;;;;5102146;28;20222;-73
2022/01/18 03:19:08;;;;;;;6.35;1.80;;;6.90;99.90;;;;;;5101989;28;20211;-73
2022/01/18 03:21:36;;;;;;;2.67;1.00;;;6.90;99.90;;;;;;5102967;28;20211;-74
2022/01/18 03:24:15;;;;;;;5.90;1.58;;;6.90;99.90;;;;;;5102154;28;20291;-71
2022/01/18 03:29:38;;;;;;;5.45;1.25;;;6.90;99.90;;;;;;5082023;27;20224;-74
2022/01/18 03:32:06;;;;;;;9.15;1.60;;;6.80;99.90;;;;;;5113762;28;20203;-71
2022/01/18 03:34:35;;;;;;;6.97;1.48;;;6.90;99.90;;;;;;5114162;28;20201;-72
2022/01/18 03:37:03;;;;;;;7.20;1.70;;;6.90;99.90;;;;;;5114322;28;20604;-71
2022/01/18 03:39:31;;;;;;;9.90;2.22;;;7.00;99.90;;;;;;5111032;28;20202;-73
2022/01/18 03:42:27;;;;;;;1.73;0.80;;;6.90;99.90;;;;;;5110736;28;20577;-71
2022/01/18 03:44:55;;;;;;;3.90;0.90;;;6.90;99.90;;;;;;5105038;28;20196;-72
2022/01/18 03:47:23;;;;;;;6.90;1.20;;;6.90;99.90;;;;;;5103079;28;20215;-74
2022/01/18 03:49:51;;;;;;;2.28;1.00;;;7.00;99.90;;;;;;5103337;28;20212;-75
2022/01/18 03:52:19;;;;;;;6.50;1.30;;;7.00;99.90;;;;;;5106931;28;20282;-74
2022/01/18 03:54:47;;;;;;;2.58;0.73;;;7.10;99.90;;;;;;5105998;28;20290;-75
2022/01/18 03:57:17;;;;;;;2.30;0.82;;;7.10;99.90;;;;;;5103261;28;20853;-75
2022/01/18 03:59:46;;;;;;;7.28;1.60;;;7.20;99.90;;;;;;5103030;28;20195;-75
2022/01/18 04:02:15;;;;;;;4.05;1.17;;;7.20;99.90;;;;;;5103256;28;20230;-75
2022/01/18 04:04:44;;;;;;;6.15;1.05;;;7.20;99.90;;;;;;5102390;28;20836;-74
2022/01/18 04:07:12;;;;;;;4.78;0.95;;;7.30;99.90;;;;;;5103611;28;20230;-75
2022/01/18 04:09:39;;;;;;;6.03;1.40;;;7.20;99.90;;;;;;5103451;28;20780;-74
2022/01/18 04:12:09;;;;;;;1.60;0.90;;;7.30;99.90;;;;;;5103344;28;20355;-75
2022/01/18 04:14:38;;;;;;;4.28;1.15;;;7.30;99.90;;;;;;5104119;28;20231;-71
2022/01/18 04:17:13;;;;;;;2.65;1.02;;;7.30;99.90;;;;;;5107838;28;20229;-71
2022/01/18 04:28:05;;;;;;;6.07;1.48;;;7.30;99.90;;;;;;5104696;27;20223;-74
2022/01/18 04:30:35;;;;;;;4.55;1.30;;;7.20;99.90;;;;;;5105329;28;20306;-73
2022/01/18 04:33:03;;;;;;;2.30;1.55;;;7.20;99.90;;;;;;5104830;28;20200;-72
2022/01/18 04:35:32;;;;;;;4.00;1.33;;;7.20;99.90;;;;;;5102724;28;20271;-75
2022/01/18 04:38:00;;;;;;;4.07;0.80;;;7.30;99.90;;;;;;5103128;28;20222;-75
2022/01/18 04:40:30;;;;;;;9.18;2.92;;;7.30;99.90;;;;;;5101908;28;20670;-75
2022/01/18 04:43:09;;;;;;;5.97;0.98;;;7.20;99.90;;;;;;5101889;28;20195;-74
2022/01/18 04:48:26;;;;;;;6.22;0.93;;;7.30;99.90;;;;;;5102684;27;20200;-75
2022/01/18 04:50:55;;;;;;;6.55;1.45;;;7.30;99.90;;;;;;5102265;28;20230;-73
2022/01/18 04:53:26;;;;;;;2.55;0.70;;;7.30;99.90;;;;;;5102277;28;20824;-74
2022/01/18 04:55:56;;;;;;;2.00;0.60;;;7.40;99.90;;;;;;5102371;28;20237;-74
2022/01/18 04:58:25;;;;;;;2.90;1.00;;;7.40;99.90;;;;;;5101177;28;20284;-75
2022/01/18 05:00:58;;;;;;;5.28;0.90;;;7.40;99.90;;;;;;5100606;28;20718;-74
2022/01/18 05:03:27;;;;;;;3.00;0.80;;;7.40;99.90;;;;;;5101137;28;20272;-73
2022/01/18 05:05:57;;;;;;;2.90;0.73;;;7.40;99.90;;;;;;5100216;28;20792;-72
2022/01/18 05:08:26;;;;;;;4.30;0.98;;;7.40;99.90;;;;;;5100906;28;20231;-71
2022/01/18 05:10:56;;;;;;;3.30;1.00;;;7.40;99.90;;;;;;5100494;28;20720;-71
2022/01/18 05:13:52;;;;;;;3.25;1.00;;;7.40;99.90;;;;;;5100066;28;20780;-71
2022/01/18 05:16:40;;;;;;;4.93;1.30;;;7.30;99.90;;;;;;5100683;28;20219;-71
2022/01/18 05:19:15;;;;;;;8.32;1.52;;;7.40;99.90;;;;;;5100584;28;20204;-71
2022/01/18 05:24:30;;;;;;;6.65;1.77;;;7.40;99.90;;;;;;5101132;28;20199;-75
2022/01/18 05:26:59;;;;;;;4.35;1.05;;;7.30;99.90;;;;;;5100489;28;20220;-72
2022/01/18 05:29:27;;;;;;;7.05;1.38;;;7.20;99.90;;;;;;5100513;28;20201;-71
2022/01/18 05:31:57;;;;;;;1.75;0.90;;;7.20;99.90;;;;;;5100632;28;20218;-73
2022/01/18 05:34:25;;;;;;;5.30;1.40;;;7.10;99.90;;;;;;5099284;28;20227;-72
2022/01/18 05:36:53;;;;;;;3.22;0.93;;;7.10;99.90;;;;;;5100185;28;20276;-71
2022/01/18 05:39:21;;;;;;;5.07;1.00;;;7.00;99.90;;;;;;5100149;28;20760;-73
2022/01/18 05:41:50;;;;;;;4.38;1.30;;;6.90;99.90;;;;;;5099247;28;20204;-73
2022/01/18 05:44:18;;;;;;;2.35;1.00;;;6.80;99.90;;;;;;5100089;28;20791;-74
2022/01/18 05:46:46;;;;;;;4.80;1.00;;;6.70;99.90;;;;;;5099579;28;20223;-71
2022/01/18 05:49:16;;;;;;;7.43;1.90;;;6.60;99.90;;;;;;5099716;28;20855;-73
2022/01/18 05:51:44;;;;;;;5.68;1.40;;;6.60;99.90;;;;;;5099766;28;20219;-73
2022/01/18 05:54:12;;;;;;;2.45;1.40;;;6.60;99.90;;;;;;5100065;28;20199;-74
2022/01/18 05:56:40;;;;;;;7.38;1.77;;;6.60;99.90;;;;;;5099579;28;20926;-72
2022/01/18 05:59:10;;;;;;;7.93;1.85;;;6.60;99.90;;;;;;5098874;28;20196;-73
2022/01/18 06:01:47;;;;;;;5.60;1.80;;;6.50;99.90;;;;;;5099645;28;20804;-71
2022/01/18 06:06:50;;;;;;;6.57;3.45;;;6.50;99.90;;;;;;5099631;28;20205;-74
2022/01/18 06:07:06;;;;;;;3.75;2.42;;;6.50;99.90;;;;;;5098122;28;20877;-71
2022/01/18 06:09:34;;;;;;;6.20;2.30;;;6.50;99.90;;;;;;5099946;28;20270;-74
2022/01/18 06:12:01;;;;;;;5.95;2.90;;;6.50;99.90;;;;;;5099537;28;20268;-75
2022/01/18 06:14:29;;;;;;;9.05;2.88;;;6.60;99.90;;;;;;5100212;28;20199;-73
2022/01/18 06:16:57;;;;;;;7.38;2.75;;;6.60;99.90;;;;;;5100062;28;20247;-73
2022/01/18 06:19:26;;;;;;;15.00;4.82;;;6.60;99.90;;;;;;5100775;28;20199;-76
2022/01/18 06:21:54;;;;;;;9.45;2.80;;;6.70;99.90;;;;;;5100608;28;20787;-73
2022/01/18 06:24:22;;;;;;;10.52;3.90;;;6.70;99.90;;;;;;5099924;28;20208;-75
2022/01/18 06:27:06;;;;;;;10.38;4.90;;;6.80;99.90;;;;;;5100265;28;20230;-72
2022/01/18 06:29:35;;;;;;;14.68;4.78;;;6.90;99.90;;;;;;5099838;28;20290;-72
2022/01/18 06:32:03;;;;;;;16.48;4.60;;;6.90;99.90;;;;;;5099277;28;20355;-70
2022/01/18 06:34:33;;;;;;;16.17;4.70;;;7.00;99.90;;;;;;5100271;28;20202;-72
2022/01/18 06:37:01;;;;;;;22.15;6.40;;;7.00;99.90;;;;;;5099365;28;20306;-72
2022/01/18 06:39:29;;;;;;;12.68;4.30;;;7.00;99.90;;;;;;5099898;28;20855;-67
2022/01/18 06:41:57;;;;;;;15.07;5.22;;;7.00;99.90;;;;;;5099738;28;20291;-74
2022/01/18 06:44:25;;;;;;;7.10;3.95;;;7.10;99.90;;;;;;5099818;28;20245;-73
2022/01/18 06:46:53;;;;;;;17.85;5.07;;;7.10;99.90;;;;;;5099541;28;20237;-72
2022/01/18 06:49:21;;;;;;;10.70;5.05;;;7.10;99.90;;;;;;5099421;28;20205;-74
2022/01/18 06:51:51;;;;;;;19.02;5.43;;;7.10;99.90;;;;;;5100729;28;20226;-75
2022/01/18 06:54:19;;;;;;;18.60;5.50;;;7.20;99.90;;;;;;5101323;28;20283;-75
2022/01/18 06:56:48;;;;;;;16.38;5.53;;;7.10;99.90;;;;;;5110792;28;20266;-76
2022/01/18 06:59:17;;;;;;;13.55;5.70;;;7.20;99.90;;;;;;5116178;28;20195;-77
2022/01/18 07:01:45;;;;;;;9.98;5.07;;;7.20;99.90;;;;;;5132296;28;20255;-74
2022/01/18 07:04:14;;;;;;;12.75;5.30;;;7.20;99.90;;;;;;5112837;28;20227;-76
2022/01/18 07:06:41;;;;;;;17.33;5.95;;;7.30;99.90;;;;;;5106246;28;20412;-76
2022/01/18 07:09:11;;;;;;;16.77;5.18;;;7.30;99.90;;;;;;5106352;27;20702;-77
2022/01/18 07:11:39;;;;;;;21.58;5.38;;;7.30;99.90;;;;;;5105883;27;20219;-76
2022/01/18 07:14:06;;;;;;;14.32;5.82;;;7.40;99.90;;;;;;5106673;28;20226;-78
2022/01/18 07:16:36;;;;;;;15.55;5.72;;;7.40;99.90;;;;;;5108010;28;20230;-76
2022/01/18 07:19:04;;;;;;;15.68;6.65;;;7.50;99.90;;;;;;5109103;28;20208;-76
2022/01/18 07:21:32;;;;;;;15.98;6.78;;;7.50;99.90;;;;;;5110408;28;20408;-75
2022/01/18 07:24:05;;;;;;;27.58;7.43;;;7.50;99.90;;;;;;5105320;28;20207;-71
2022/01/18 07:26:34;;;;;;;13.60;7.70;;;7.50;99.90;;;;;;5103246;28;20341;-72
2022/01/18 07:29:02;;;;;;;12.80;5.68;;;7.50;99.90;;;;;;5104253;28;20290;-71
2022/01/18 07:31:30;;;;;;;15.40;5.82;;;7.50;99.90;;;;;;5104583;28;20219;-70
2022/01/18 07:33:58;;;;;;;15.70;5.15;;;7.60;99.90;;;;;;5103658;28;20830;-73
2022/01/18 07:36:26;;;;;;;13.60;6.13;;;7.60;99.90;;;;;;5103652;28;20219;-69
2022/01/18 07:38:55;;;;;;;14.60;5.00;;;7.60;99.90;;;;;;5103117;28;20287;-71
2022/01/18 07:41:24;;;;;;;25.45;6.72;;;7.60;99.90;;;;;;5099318;28;20202;-71
2022/01/18 07:43:54;;;;;;;16.80;6.30;;;7.60;99.90;;;;;;5102723;28;20223;-73
2022/01/18 07:46:24;;;;;;;22.35;6.95;;;7.60;99.90;;;;;;5104995;27;20216;-73
2022/01/18 07:48:52;;;;;;;18.98;5.40;;;7.60;99.90;;;;;;5103466;28;20195;-73
2022/01/18 07:52:47;;;;;;;20.00;4.82;;;7.60;99.90;;;;;;5139245;27;20572;-75
2022/01/18 07:55:15;;;;;;;20.73;5.15;;;7.60;99.90;;;;;;5138605;27;20198;-72
2022/01/18 07:57:43;;;;;;;33.08;7.15;;;7.50;99.90;;;;;;5139117;27;20828;-74
2022/01/18 08:00:13;;;;;;;21.23;6.20;;;7.60;99.90;;;;;;5138717;27;20237;-74
2022/01/18 08:02:41;;;;;;;16.80;4.50;;;7.60;99.90;;;;;;5138707;27;20196;-74
2022/01/18 08:05:11;;;;;;;30.45;5.97;;;7.60;99.90;;;;;;5138654;27;20208;-74
2022/01/18 08:07:40;;;;;;;21.98;5.43;;;7.60;99.90;;;;;;5138270;27;20306;-74
2022/01/18 08:10:11;;;;;;;22.65;5.07;;;7.60;99.90;;;;;;5138329;27;20236;-73
2022/01/18 08:12:39;;;;;;;18.85;5.22;;;7.60;99.90;;;;;;5138158;27;20302;-74
2022/01/18 08:15:15;;;;;;;21.05;5.50;;;7.60;99.90;;;;;;5138715;27;20209;-73
2022/01/18 08:17:54;;;;;;;14.77;4.65;;;7.60;99.90;;;;;;5138854;27;20225;-75
2022/01/18 08:20:23;;;;;;;14.70;4.57;;;7.70;99.90;;;;;;5138892;27;20346;-75
2022/01/18 08:22:51;;;;;;;22.10;6.25;;;7.70;99.90;;;;;;5137956;27;20230;-74
2022/01/18 08:25:22;;;;;;;13.95;6.10;;;7.70;99.90;;;;;;5138927;27;20230;-76
2022/01/18 08:27:51;;;;;;;22.52;6.18;;;7.70;99.90;;;;;;5139064;27;20711;-75
2022/01/18 08:30:20;;;;;;;26.75;7.65;;;7.80;99.90;;;;;;5138141;27;20474;-74
2022/01/18 08:32:49;;;;;;;22.52;6.85;;;7.80;99.90;;;;;;5139194;27;20765;-75
2022/01/18 08:35:18;;;;;;;29.63;6.47;;;7.80;99.90;;;;;;5138852;27;20202;-74
2022/01/18 08:37:46;;;;;;;22.65;5.53;;;7.80;99.90;;;;;;5149114;27;20215;-74
2022/01/18 08:40:15;;;;;;;20.92;5.90;;;7.90;99.90;;;;;;5157839;27;20186;-74
2022/01/18 08:42:44;;;;;;;24.17;6.20;;;7.90;99.90;;;;;;5159602;27;20381;-74
2022/01/18 08:45:12;;;;;;;18.75;4.78;;;7.90;99.90;;;;;;5151066;27;20203;-74
2022/01/18 08:47:47;;;;;;;18.90;4.75;;;7.90;99.90;;;;;;5149771;27;20221;-75
2022/01/18 08:50:17;;;;;;;22.42;5.70;;;7.90;99.90;;;;;;5144259;27;20529;-76
2022/01/18 08:52:48;;;;;;;21.30;5.53;;;7.90;99.90;;;;;;5139573;27;20303;-75
2022/01/18 08:55:16;;;;;;;23.15;5.25;;;7.90;99.90;;;;;;5137433;27;20733;-74
2022/01/18 08:57:46;;;;;;;24.60;5.10;;;8.00;99.90;;;;;;5138178;27;20229;-74
2022/01/18 09:00:15;;;;;;;14.25;4.43;;;8.00;99.90;;;;;;5149811;27;20226;-73
2022/01/18 09:02:43;;;;;;;12.77;4.40;;;8.00;99.90;;;;;;5133304;27;20232;-75
2022/01/18 09:05:11;;;;;;;21.20;5.40;;;8.00;99.90;;;;;;5124050;27;20206;-74
2022/01/18 09:07:40;;;;;;;29.35;4.93;;;8.00;99.90;;;;;;5124278;27;20697;-74
2022/01/18 09:10:11;;;;;;;15.45;4.32;;;8.10;99.90;;;;;;5124630;27;20209;-73
2022/01/18 09:12:39;;;;;;;16.00;3.85;;;8.10;99.90;;;;;;5122718;27;20222;-72
2022/01/18 09:15:12;;;;;;;20.58;4.93;;;8.10;99.90;;;;;;5117755;27;20210;-73
2022/01/18 09:17:43;;;;;;;20.50;4.85;;;8.10;99.90;;;;;;5116480;27;20221;-71
2022/01/18 09:20:14;;;;;;;22.33;4.10;;;8.10;99.90;;;;;;5115573;27;20282;-74
2022/01/18 09:22:48;;;;;;;14.07;4.72;;;8.20;99.90;;;;;;5109033;27;20255;-72
2022/01/18 09:25:20;;;;;;;25.60;4.35;;;8.20;99.90;;;;;;5105545;28;20199;-72
2022/01/18 09:27:52;;;;;;;20.08;4.47;;;8.30;99.90;;;;;;5111380;28;20292;-68
2022/01/18 09:30:24;;;;;;;29.05;5.05;;;8.30;99.90;;;;;;5111422;28;20223;-69
2022/01/18 09:32:53;;;;;;;14.40;3.70;;;8.20;99.90;;;;;;5112913;28;20312;-70
2022/01/18 09:35:22;;;;;;;14.82;4.20;;;8.20;99.90;;;;;;5105392;28;20204;-69
2022/01/18 09:37:50;;;;;;;23.08;6.13;;;8.30;99.90;;;;;;5103117;28;20223;-69
2022/01/18 09:40:20;;;;;;;19.25;4.32;;;8.30;99.90;;;;;;5103121;28;20283;-71
2022/01/18 09:42:51;;;;;;;17.15;4.82;;;8.30;99.90;;;;;;5103661;28;20196;-70
2022/01/18 09:45:20;;;;;;;16.13;3.35;;;8.30;99.90;;;;;;5103475;28;20202;-69
2022/01/18 09:47:52;;;;;;;17.23;4.40;;;8.30;99.90;;;;;;5104303;27;20250;-66
2022/01/18 09:50:22;;;;;;;19.63;4.40;;;8.40;99.90;;;;;;5123267;27;20263;-69
2022/01/18 09:52:54;;;;;;;17.75;4.40;;;8.40;99.90;;;;;;5122370;27;20229;-69
2022/01/18 09:55:24;;;;;;;18.55;5.90;;;8.40;99.90;;;;;;5122805;27;20202;-71
2022/01/18 09:57:53;;;;;;;21.13;4.03;;;8.40;99.90;;;;;;5114938;27;20306;-69
2022/01/18 10:00:23;;;;;;;11.80;2.78;;;8.40;99.90;;;;;;5101968;28;20490;-69
2022/01/18 10:02:53;;;;;;;11.35;3.70;;;8.40;99.90;;;;;;5101964;28;20199;-71
2022/01/18 10:05:22;;;;;;;13.40;3.33;;;8.40;99.90;;;;;;5101931;28;20570;-71
2022/01/18 10:08:02;;;;;;;11.80;2.92;;;8.40;99.90;;;;;;5102029;28;20219;-71
2022/01/18 10:10:42;;;;;;;8.35;3.42;;;8.50;99.90;;;;;;5101282;28;20318;-70
2022/01/18 10:13:17;;;;;;;18.13;3.45;;;8.50;99.90;;;;;;5101676;28;20299;-71
2022/01/18 10:16:05;;;;;;;13.02;4.13;;;8.60;99.90;;;;;;5101163;28;20184;-73
2022/01/18 10:18:44;;;;;;;19.65;4.03;;;8.60;99.90;;;;;;5101811;28;20206;-72
2022/01/18 10:21:13;;;;;;;17.88;3.63;;;8.60;99.90;;;;;;5102635;28;20472;-75
2022/01/18 10:23:48;;;;;;;17.00;3.65;;;8.60;99.90;;;;;;5102920;28;20211;-75
2022/01/18 10:26:22;;;;;;;6.15;3.13;;;8.50;99.90;;;;;;5103705;28;20219;-76
2022/01/18 10:29:00;;;;;;;11.23;3.28;;;8.50;99.90;;;;;;5102585;28;20200;-75
2022/01/18 10:31:38;;;;;;;11.85;3.72;;;8.60;99.90;;;;;;5105031;28;20263;-75
2022/01/18 10:34:27;;;;;;;10.23;3.50;;;8.60;99.90;;;;;;5103887;28;20216;-75
2022/01/18 10:36:59;;;;;;;11.40;3.67;;;8.60;99.90;;;;;;5104216;28;20231;-75
2022/01/18 10:39:33;;;;;;;14.43;2.97;;;8.70;99.90;;;;;;5103491;28;20256;-75
2022/01/18 10:42:02;;;;;;;8.77;4.05;;;8.70;99.90;;;;;;5102338;28;20251;-76
2022/01/18 10:44:34;;;;;;;16.38;3.63;;;8.60;99.90;;;;;;5103216;28;20377;-76
2022/01/18 10:47:02;;;;;;;13.80;2.80;;;8.60;99.90;;;;;;5102786;28;20224;-76
2022/01/18 10:49:36;;;;;;;17.00;4.35;;;8.60;99.90;;;;;;5117094;27;20431;-76
2022/01/18 10:52:07;;;;;;;13.20;2.28;;;8.70;99.90;;;;;;5122568;27;20202;-76
2022/01/18 10:54:38;;;;;;;14.45;5.38;;;8.60;99.90;;;;;;5122984;27;20207;-76
2022/01/18 10:57:08;;;;;;;10.32;3.60;;;8.60;99.90;;;;;;5122302;27;20242;-75
2022/01/18 10:59:38;;;;;;;12.82;3.30;;;8.60;99.90;;;;;;5120956;27;20271;-74
2022/01/18 11:02:10;;;;;;;13.13;4.70;;;8.60;99.90;;;;;;5122247;27;20195;-76
2022/01/18 11:04:45;;;;;;;6.57;2.38;;;8.70;99.90;;;;;;5122347;27;20199;-76
2022/01/18 11:07:15;;;;;;;12.15;2.80;;;8.70;99.90;;;;;;5121335;27;20233;-75
2022/01/18 11:09:43;;;;;;;11.90;1.85;;;8.70;99.90;;;;;;5120274;27;20206;-76
2022/01/18 11:12:12;;;;;;;10.38;3.50;;;8.60;99.90;;;;;;5120624;27;20191;-76
2022/01/18 11:14:44;;;;;;;8.60;2.20;;;8.50;99.90;;;;;;5120601;27;20199;-76
2022/01/18 11:17:21;;;;;;;11.20;2.65;;;8.50;99.90;;;;;;5120849;27;20285;-76
2022/01/18 11:19:55;;;;;;;11.30;2.65;;;8.60;99.90;;;;;;5121318;27;20283;-75
2022/01/18 11:22:33;;;;;;;7.78;2.15;;;8.50;99.90;;;;;;5120257;27;20592;-76
2022/01/18 11:25:08;;;;;;;6.43;2.95;;;8.50;99.90;;;;;;5138616;27;20225;-74
2022/01/18 11:27:38;;;;;;;7.35;2.10;;;8.50;99.90;;;;;;5107437;27;20705;-78
2022/01/18 11:30:08;;;;;;;7.00;1.70;;;8.50;99.90;;;;;;5111068;27;20302;-78
2022/01/18 11:32:37;;;;;;;7.63;1.80;;;8.60;99.90;;;;;;5112549;27;20214;-76
2022/01/18 11:35:12;;;;;;;3.83;2.58;;;8.50;99.90;;;;;;5110341;27;20364;-74
2022/01/18 11:37:47;;;;;;;8.60;2.17;;;8.50;99.90;;;;;;5109099;27;20757;-73
2022/01/18 11:40:17;;;;;;;12.20;1.70;;;8.50;99.90;;;;;;5109946;27;20652;-77
2022/01/18 11:42:50;;;;;;;5.38;1.65;;;8.60;99.90;;;;;;5109881;27;20252;-74
2022/01/18 11:45:30;;;;;;;6.88;1.98;;;8.50;99.90;;;;;;5108671;27;20235;-75
2022/01/18 11:48:00;;;;;;;8.48;1.67;;;8.50;99.90;;;;;;5108231;27;20617;-75
2022/01/18 11:50:31;;;;;;;9.18;2.10;;;8.50;99.90;;;;;;5109025;28;20424;-74
2022/01/18 11:53:41;;;;;;;5.25;2.03;;;8.60;99.90;;;;;;5115333;28;20199;-75
2022/01/18 11:56:14;;;;;;;3.85;1.15;;;8.60;99.90;;;;;;5057531;27;20195;-75
2022/01/18 11:58:43;;;;;;;6.18;1.63;;;8.60;99.90;;;;;;5099617;28;20330;-75
2022/01/18 12:01:12;;;;;;;3.20;1.10;;;8.60;99.90;;;;;;5099931;28;20200;-76
2022/01/18 12:03:48;;;;;;;5.72;1.23;;;8.50;99.90;;;;;;5116409;28;20259;-76
2022/01/18 12:06:40;;;;;;;6.20;1.90;;;8.60;99.90;;;;;;5117078;28;20218;-76
2022/01/18 12:09:37;;;;;;;8.20;1.45;;;8.60;99.90;;;;;;5111391;28;20194;-76
2022/01/18 12:12:09;;;;;;;6.15;1.70;;;8.70;99.90;;;;;;5123697;27;20203;-75
2022/01/18 12:14:37;;;;;;;5.22;1.60;;;8.70;99.90;;;;;;5121312;27;20243;-75
2022/01/18 12:17:14;;;;;;;9.90;2.40;;;8.70;99.90;;;;;;5121682;28;20387;-74
2022/01/18 12:19:45;;;;;;;3.38;1.70;;;8.70;99.90;;;;;;5121308;27;20290;-74
2022/01/18 12:22:15;;;;;;;7.05;2.17;;;8.70;99.90;;;;;;5122585;27;20281;-75
2022/01/18 12:24:47;;;;;;;5.18;1.58;;;8.60;99.90;;;;;;5121600;27;20202;-76
2022/01/18 12:27:28;;;;;;;14.07;2.50;;;8.60;99.90;;;;;;5121094;27;20223;-74
2022/01/18 12:30:37;;;;;;;6.78;2.42;;;8.50;99.90;;;;;;5129922;27;20270;-74
2022/01/18 12:33:17;;;;;;;3.75;1.35;;;8.60;99.90;;;;;;5141931;27;20320;-74
2022/01/18 12:35:45;;;;;;;4.55;1.80;;;8.50;99.90;;;;;;5141388;27;20567;-74
2022/01/18 12:38:23;;;;;;;3.92;1.80;;;8.50;99.90;;;;;;5142482;27;20225;-74
2022/01/18 12:40:53;;;;;;;9.00;1.67;;;8.50;99.90;;;;;;5145393;27;20202;-75
2022/01/18 12:46:15;;;;;;;3.53;1.45;;;8.40;99.90;;;;;;5144468;27;20744;-76
2022/01/18 12:48:43;;;;;;;2.70;1.40;;;8.30;99.90;;;;;;5144541;27;20556;-76
2022/01/18 12:51:13;;;;;;;5.30;1.60;;;8.30;99.90;;;;;;5143904;27;20218;-76
2022/01/18 12:53:47;;;;;;;3.38;1.40;;;8.40;99.90;;;;;;5144104;27;20229;-77
2022/01/18 12:56:15;;;;;;;4.50;1.85;;;8.30;99.90;;;;;;5143876;27;20228;-76
2022/01/18 12:58:46;;;;;;;3.25;1.70;;;8.40;99.90;;;;;;5144219;27;20653;-76
2022/01/18 13:01:16;;;;;;;5.05;1.38;;;8.40;99.90;;;;;;5144205;27;20208;-74
2022/01/18 13:03:46;;;;;;;4.30;1.45;;;8.50;99.90;;;;;;5143685;27;20190;-75
2022/01/18 13:06:17;;;;;;;8.05;1.85;;;8.50;99.90;;;;;;5145463;27;20182;-77
2022/01/18 13:08:48;;;;;;;6.20;2.20;;;8.50;99.90;;;;;;5152833;27;20931;-76
2022/01/18 13:11:19;;;;;;;5.47;1.85;;;8.40;99.90;;;;;;5156562;27;20195;-76
2022/01/18 13:13:55;;;;;;;5.45;1.73;;;8.40;99.90;;;;;;5149979;27;20219;-75
2022/01/18 13:27:33;;;;;;;5.13;3.05;;;8.30;99.90;;;;;;5143311;27;20220;-75
2022/01/18 13:30:22;;;;;;;5.05;1.98;;;8.20;99.90;;;;;;5144189;27;20210;-74
2022/01/18 13:32:52;;;;;;;2.78;1.60;;;8.20;99.90;;;;;;5144168;27;20194;-72
2022/01/18 13:35:22;;;;;;;6.38;1.52;;;8.10;99.90;;;;;;5144739;27;20266;-76
2022/01/18 13:37:49;;;;;;;1.80;1.65;;;8.00;99.90;;;;;;5143934;27;20309;-76
2022/01/18 13:40:20;;;;;;;8.25;2.25;;;8.00;99.90;;;;;;5143997;27;20194;-75
2022/01/18 13:42:53;;;;;;;4.20;1.85;;;7.90;99.90;;;;;;5143545;27;20296;-75
2022/01/18 13:45:24;;;;;;;4.50;1.92;;;7.90;99.90;;;;;;5142592;27;20629;-74
2022/01/18 13:47:54;;;;;;;5.20;1.27;;;7.80;99.90;;;;;;5141776;27;20218;-78
2022/01/18 13:50:34;;;;;;;6.57;1.83;;;7.80;99.90;;;;;;5146958;27;20205;-78
2022/01/18 13:53:05;;;;;;;1.75;1.40;;;7.80;99.90;;;;;;5151778;27;20202;-77
2022/01/18 13:55:36;;;;;;;3.30;1.75;;;7.80;99.90;;;;;;5149939;27;20256;-79
2022/01/18 13:58:05;;;;;;;4.45;1.60;;;7.90;99.90;;;;;;5149401;27;20373;-76
2022/01/18 14:00:33;;;;;;;2.67;1.15;;;7.90;99.90;;;;;;5151280;27;20183;-78
2022/01/18 14:03:02;;;;;;;3.80;1.85;;;8.00;99.90;;;;;;5150946;27;20201;-77
2022/01/18 14:05:30;;;;;;;1.42;1.33;;;8.00;99.90;;;;;;5150538;27;20191;-77
2022/01/18 14:08:04;;;;;;;3.75;1.38;;;8.00;99.90;;;;;;5152321;27;20236;-78
2022/01/18 14:10:33;;;;;;;2.15;1.63;;;8.00;99.90;;;;;;5150414;27;20281;-77
2022/01/18 14:13:03;;;;;;;2.05;1.85;;;8.00;99.90;;;;;;5149540;27;20692;-77
2022/01/18 14:15:42;;;;;;;3.85;1.80;;;8.00;99.90;;;;;;5154317;27;20210;-78
2022/01/18 14:18:10;;;;;;;1.50;1.50;;;8.00;99.90;;;;;;5149213;27;20249;-78